createdAt,value
2018-05-29T00:01:32.323Z,20.80
2018-05-29T00:03:59.800Z,20.70
2018-05-29T00:06:27.309Z,20.70
2018-05-29T00:08:55.624Z,20.70
2018-05-29T00:11:23.292Z,20.70
2018-05-29T00:13:50.966Z,20.70
2018-05-29T00:16:18.629Z,20.70
2018-05-29T00:18:46.138Z,20.60
2018-05-29T00:21:13.720Z,20.60
2018-05-29T00:23:41.198Z,20.60
2018-05-29T00:26:08.977Z,20.50
2018-05-29T00:28:37.009Z,20.50
2018-05-29T00:31:04.567Z,20.40
2018-05-29T00:33:33.605Z,20.40
2018-05-29T00:36:01.876Z,20.40
2018-05-29T00:38:29.584Z,20.40
2018-05-29T00:40:57.060Z,20.30
2018-05-29T00:43:24.766Z,20.30
2018-05-29T00:45:52.228Z,20.30
2018-05-29T00:48:19.854Z,20.30
2018-05-29T00:50:47.296Z,20.30
2018-05-29T00:53:14.952Z,20.30
2018-05-29T00:55:42.617Z,20.20
2018-05-29T00:58:10.280Z,20.20
2018-05-29T01:00:37.761Z,20.10
2018-05-29T01:03:05.265Z,20.10
2018-05-29T01:05:32.732Z,20.10
2018-05-29T01:08:00.304Z,20.00
2018-05-29T01:10:27.867Z,20.00
2018-05-29T01:12:55.318Z,20.00
2018-05-29T01:15:22.775Z,20.00
2018-05-29T01:17:50.252Z,20.00
2018-05-29T01:20:17.692Z,20.00
2018-05-29T01:22:45.159Z,20.00
2018-05-29T01:25:12.623Z,20.00
2018-05-29T01:27:40.253Z,20.00
2018-05-29T01:30:07.978Z,20.10
2018-05-29T01:32:36.210Z,20.00
2018-05-29T01:35:03.674Z,20.00
2018-05-29T01:37:31.122Z,20.00
2018-05-29T01:39:58.609Z,20.00
2018-05-29T01:42:26.850Z,19.90
2018-05-29T01:44:54.396Z,19.90
2018-05-29T01:47:21.933Z,19.80
2018-05-29T01:49:49.529Z,19.80
2018-05-29T01:52:17.194Z,19.80
2018-05-29T01:54:44.836Z,19.80
2018-05-29T01:57:12.385Z,19.70
2018-05-29T01:59:40.183Z,19.70
2018-05-29T02:02:07.826Z,19.70
2018-05-29T02:04:35.416Z,19.70
2018-05-29T02:07:02.824Z,19.60
2018-05-29T02:09:30.792Z,19.60
2018-05-29T02:11:58.251Z,19.60
2018-05-29T02:14:25.920Z,19.50
2018-05-29T02:16:53.418Z,19.60
2018-05-29T02:19:21.036Z,19.60
2018-05-29T02:21:48.700Z,19.60
2018-05-29T02:24:16.238Z,19.60
2018-05-29T02:26:43.832Z,19.60
2018-05-29T02:29:11.484Z,19.60
2018-05-29T02:31:39.020Z,19.60
2018-05-29T02:34:06.469Z,19.50
2018-05-29T02:36:34.048Z,19.50
2018-05-29T02:39:01.590Z,19.60
2018-05-29T02:41:29.052Z,19.50
2018-05-29T02:43:56.507Z,19.60
2018-05-29T02:46:23.964Z,19.50
2018-05-29T02:48:51.751Z,19.50
2018-05-29T02:51:19.284Z,19.50
2018-05-29T02:53:46.748Z,19.50
2018-05-29T02:56:14.304Z,19.40
2018-05-29T02:58:41.968Z,19.40
2018-05-29T03:01:09.514Z,19.40
2018-05-29T03:03:37.092Z,19.40
2018-05-29T03:06:04.620Z,19.30
2018-05-29T03:08:32.122Z,19.30
2018-05-29T03:10:59.576Z,19.30
2018-05-29T03:13:27.209Z,19.30
2018-05-29T03:15:54.800Z,19.20
2018-05-29T03:18:22.252Z,19.30
2018-05-29T03:20:49.896Z,19.30
2018-05-29T03:23:17.425Z,19.30
2018-05-29T03:25:45.233Z,19.30
2018-05-29T03:28:12.694Z,19.30
2018-05-29T03:30:40.923Z,19.30
2018-05-29T03:33:08.484Z,19.20
2018-05-29T03:35:35.940Z,19.30
2018-05-29T03:38:03.720Z,19.20
2018-05-29T03:40:31.262Z,19.20
2018-05-29T03:42:58.710Z,19.20
2018-05-29T03:45:26.312Z,19.10
2018-05-29T03:47:53.961Z,19.10
2018-05-29T03:50:22.623Z,19.10
2018-05-29T03:52:50.104Z,19.10
2018-05-29T03:55:17.778Z,19.10
2018-05-29T03:57:45.242Z,19.10
2018-05-29T04:00:12.875Z,19.20
2018-05-29T04:02:40.341Z,19.20
2018-05-29T04:05:09.425Z,19.30
2018-05-29T04:07:38.330Z,19.30
2018-05-29T04:10:07.160Z,19.40
2018-05-29T04:12:34.692Z,19.40
2018-05-29T04:15:02.168Z,19.40
2018-05-29T04:17:29.796Z,19.40
2018-05-29T04:19:57.312Z,19.40
2018-05-29T04:22:24.778Z,19.50
2018-05-29T04:24:52.246Z,19.50
2018-05-29T04:27:19.738Z,19.60
2018-05-29T04:29:47.355Z,19.60
2018-05-29T04:32:14.810Z,19.60
2018-05-29T04:34:42.267Z,19.60
2018-05-29T04:37:09.735Z,19.70
2018-05-29T04:39:37.605Z,19.70
2018-05-29T04:42:05.083Z,19.70
2018-05-29T04:44:32.630Z,19.80
2018-05-29T04:47:01.611Z,19.90
2018-05-29T04:49:29.218Z,19.80
2018-05-29T04:51:56.695Z,19.90
2018-05-29T04:54:24.299Z,19.90
2018-05-29T04:56:51.918Z,20.00
2018-05-29T04:59:19.405Z,20.10
2018-05-29T05:01:46.840Z,20.10
2018-05-29T05:04:14.380Z,20.20
2018-05-29T05:06:41.866Z,20.30
2018-05-29T05:09:09.439Z,20.30
2018-05-29T05:11:38.402Z,20.40
2018-05-29T05:14:05.913Z,20.40
2018-05-29T05:16:33.472Z,20.40
2018-05-29T05:19:00.975Z,20.50
2018-05-29T05:21:28.439Z,20.60
2018-05-29T05:23:56.011Z,20.70
2018-05-29T05:26:23.558Z,20.70
2018-05-29T05:28:51.148Z,20.80
2018-05-29T05:31:18.763Z,21.00
2018-05-29T05:33:46.218Z,21.00
2018-05-29T05:36:13.679Z,21.10
2018-05-29T05:38:41.160Z,21.20
2018-05-29T05:41:08.620Z,21.20
2018-05-29T05:43:37.700Z,21.30
2018-05-29T05:46:05.387Z,21.30
2018-05-29T05:48:32.820Z,21.40
2018-05-29T05:51:00.366Z,21.40
2018-05-29T05:53:27.826Z,21.50
2018-05-29T05:55:55.273Z,21.50
2018-05-29T05:58:22.786Z,21.60
2018-05-29T06:00:51.120Z,21.70
2018-05-29T06:03:18.597Z,21.70
2018-05-29T06:05:46.252Z,21.70
2018-05-29T06:08:13.717Z,21.80
2018-05-29T06:10:42.684Z,21.90
2018-05-29T06:13:10.146Z,21.90
2018-05-29T06:15:37.613Z,21.90
2018-05-29T06:18:05.117Z,22.10
2018-05-29T06:20:32.578Z,22.10
2018-05-29T06:23:00.020Z,22.20
2018-05-29T06:25:27.488Z,22.30
2018-05-29T06:27:54.938Z,22.30
2018-05-29T06:30:22.456Z,22.30
2018-05-29T06:32:49.974Z,22.40
2018-05-29T06:35:17.355Z,22.50
2018-05-29T06:37:44.831Z,22.60
2018-05-29T06:40:12.464Z,22.60
2018-05-29T06:42:40.038Z,22.70
2018-05-29T06:45:07.512Z,22.80
2018-05-29T06:47:35.028Z,22.90
2018-05-29T06:50:02.486Z,22.80
2018-05-29T06:52:29.984Z,22.80
2018-05-29T06:54:57.498Z,22.80
2018-05-29T06:57:24.944Z,22.80
2018-05-29T06:59:52.489Z,23.00
2018-05-29T07:02:20.002Z,23.00
2018-05-29T07:04:47.505Z,23.00
2018-05-29T07:07:15.127Z,23.10
2018-05-29T07:09:42.754Z,23.20
2018-05-29T07:12:10.277Z,23.20
2018-05-29T07:14:37.752Z,23.30
2018-05-29T07:17:05.320Z,23.40
2018-05-29T07:19:32.787Z,23.30
2018-05-29T07:22:00.253Z,23.30
2018-05-29T07:24:27.792Z,23.20
2018-05-29T07:26:55.343Z,23.10
2018-05-29T07:29:22.826Z,23.20
2018-05-29T07:31:50.349Z,23.30
2018-05-29T07:34:17.958Z,23.50
2018-05-29T07:36:45.598Z,23.70
2018-05-29T07:39:13.258Z,23.80
2018-05-29T07:41:40.790Z,23.70
2018-05-29T07:44:08.381Z,23.60
2018-05-29T07:46:36.020Z,23.60
2018-05-29T07:49:03.694Z,23.80
2018-05-29T07:51:32.648Z,24.00
2018-05-29T07:54:00.105Z,24.00
2018-05-29T07:56:27.764Z,24.10
2018-05-29T07:58:55.393Z,24.30
2018-05-29T08:01:24.458Z,24.40
2018-05-29T08:03:51.906Z,24.40
2018-05-29T08:06:19.421Z,24.50
2018-05-29T08:08:48.403Z,24.30
2018-05-29T08:11:15.911Z,24.30
2018-05-29T08:13:43.401Z,24.30
2018-05-29T08:16:10.896Z,24.60
2018-05-29T08:18:38.542Z,24.70
2018-05-29T08:21:05.940Z,24.70
2018-05-29T08:23:33.482Z,24.70
2018-05-29T08:26:00.928Z,24.80
2018-05-29T08:28:28.489Z,24.90
2018-05-29T08:30:56.005Z,25.00
2018-05-29T08:33:23.430Z,25.00
2018-05-29T08:35:50.889Z,25.00
2018-05-29T08:38:18.540Z,24.90
2018-05-29T08:40:46.088Z,25.00
2018-05-29T08:43:13.538Z,25.00
2018-05-29T08:45:40.980Z,25.00
2018-05-29T08:48:08.657Z,25.10
2018-05-29T08:50:36.240Z,25.20
2018-05-29T08:53:03.769Z,25.40
2018-05-29T08:55:31.278Z,25.40
2018-05-29T08:57:59.608Z,25.40
2018-05-29T09:00:27.098Z,25.40
2018-05-29T09:02:54.725Z,25.60
2018-05-29T09:05:22.390Z,25.60
2018-05-29T09:07:49.937Z,25.60
2018-05-29T09:10:17.390Z,25.80
2018-05-29T09:12:44.840Z,25.90
2018-05-29T09:15:12.435Z,25.90
2018-05-29T09:17:39.872Z,26.00
2018-05-29T09:20:07.945Z,25.90
2018-05-29T09:22:35.620Z,25.90
2018-05-29T09:25:03.261Z,26.00
2018-05-29T09:27:30.726Z,26.00
2018-05-29T09:29:58.283Z,26.00
2018-05-29T09:32:25.713Z,26.10
2018-05-29T09:34:53.304Z,26.20
2018-05-29T09:37:20.785Z,26.40
2018-05-29T09:39:48.423Z,26.30
2018-05-29T09:42:15.881Z,26.30
2018-05-29T09:44:44.860Z,26.50
2018-05-29T09:47:12.429Z,26.50
2018-05-29T09:49:40.075Z,26.70
2018-05-29T09:52:07.612Z,26.90
2018-05-29T09:54:35.243Z,26.90
2018-05-29T09:57:02.690Z,26.80
2018-05-29T09:59:30.195Z,26.80
2018-05-29T10:01:57.664Z,26.70
2018-05-29T10:04:25.237Z,26.90
2018-05-29T10:06:52.707Z,26.90
2018-05-29T10:09:21.868Z,27.00
2018-05-29T10:11:51.287Z,27.00
2018-05-29T10:14:18.759Z,27.00
2018-05-29T10:16:46.396Z,27.10
2018-05-29T10:19:14.045Z,27.00
2018-05-29T10:21:41.502Z,26.90
2018-05-29T10:24:08.972Z,27.00
2018-05-29T10:26:36.626Z,27.20
2018-05-29T10:29:04.771Z,27.20
2018-05-29T10:31:32.210Z,27.10
2018-05-29T10:33:59.771Z,26.90
2018-05-29T10:36:27.239Z,27.00
2018-05-29T10:38:54.916Z,27.10
2018-05-29T10:41:22.584Z,27.20
2018-05-29T10:43:50.268Z,27.40
2018-05-29T10:46:17.714Z,27.40
2018-05-29T10:48:45.166Z,27.20
2018-05-29T10:51:12.820Z,27.10
2018-05-29T10:53:40.482Z,27.10
2018-05-29T10:56:07.941Z,27.20
2018-05-29T10:58:35.400Z,27.30
2018-05-29T11:01:02.858Z,27.30
2018-05-29T11:03:31.914Z,27.20
2018-05-29T11:05:59.411Z,27.20
2018-05-29T11:08:28.712Z,27.10
2018-05-29T11:10:56.250Z,27.10
2018-05-29T11:13:23.819Z,27.10
2018-05-29T11:15:51.345Z,27.20
2018-05-29T11:18:18.924Z,27.20
2018-05-29T11:20:47.025Z,27.20
2018-05-29T11:23:15.232Z,27.20
2018-05-29T11:25:42.821Z,27.30
2018-05-29T11:28:10.391Z,27.20
2018-05-29T11:30:37.918Z,27.20
2018-05-29T11:33:05.533Z,27.00
2018-05-29T11:35:33.110Z,26.90
2018-05-29T11:38:01.382Z,26.90
2018-05-29T11:40:29.723Z,26.70
2018-05-29T11:42:57.182Z,26.70
2018-05-29T11:45:24.847Z,26.70
2018-05-29T11:47:53.809Z,26.70
2018-05-29T11:50:21.258Z,26.70
2018-05-29T11:52:48.815Z,26.80
2018-05-29T11:55:16.267Z,26.80
2018-05-29T11:57:43.708Z,26.80
2018-05-29T12:00:11.219Z,26.90
2018-05-29T12:02:40.179Z,26.90
2018-05-29T12:05:07.973Z,26.90
2018-05-29T12:07:37.120Z,26.80
2018-05-29T12:10:04.705Z,26.80
2018-05-29T12:12:32.237Z,26.90
2018-05-29T12:14:59.695Z,27.00
2018-05-29T12:17:27.160Z,27.10
2018-05-29T12:19:54.707Z,27.10
2018-05-29T12:22:22.249Z,27.10
2018-05-29T12:24:49.766Z,27.10
2018-05-29T12:27:17.227Z,27.00
2018-05-29T12:29:44.734Z,27.00
2018-05-29T12:32:12.219Z,27.00
2018-05-29T12:34:39.864Z,26.90
2018-05-29T12:37:07.335Z,27.00
2018-05-29T12:39:34.997Z,27.00
2018-05-29T12:42:02.681Z,27.00
2018-05-29T12:44:30.246Z,27.20
2018-05-29T12:46:57.669Z,27.20
2018-05-29T12:49:25.308Z,27.30
2018-05-29T12:51:52.763Z,27.40
2018-05-29T12:54:20.352Z,27.40
2018-05-29T12:56:47.803Z,27.20
2018-05-29T12:59:15.349Z,27.00
2018-05-29T13:01:42.802Z,26.90
2018-05-29T13:04:10.352Z,26.70
2018-05-29T13:06:37.843Z,26.70
2018-05-29T13:09:05.289Z,26.70
2018-05-29T13:11:32.762Z,26.70
2018-05-29T13:14:00.219Z,26.80
2018-05-29T13:16:27.678Z,26.90
2018-05-29T13:18:55.321Z,26.90
2018-05-29T13:21:22.853Z,27.00
2018-05-29T13:23:50.327Z,27.00
2018-05-29T13:26:18.374Z,27.00
2018-05-29T13:28:47.055Z,27.20
2018-05-29T13:31:15.228Z,27.20
2018-05-29T13:33:43.801Z,27.10
2018-05-29T13:36:12.811Z,27.00
2018-05-29T13:38:40.500Z,27.00
2018-05-29T13:41:07.972Z,26.90
2018-05-29T13:43:35.607Z,27.00
2018-05-29T13:46:03.065Z,27.00
2018-05-29T13:48:30.517Z,27.00
2018-05-29T13:50:58.793Z,27.00
2018-05-29T13:53:26.317Z,27.10
2018-05-29T13:55:53.918Z,27.20
2018-05-29T13:58:21.454Z,27.30
2018-05-29T14:00:50.192Z,27.40
2018-05-29T14:03:18.469Z,27.50
2018-05-29T14:05:45.863Z,27.50
2018-05-29T14:08:14.438Z,27.60
2018-05-29T14:10:43.854Z,27.60
2018-05-29T14:13:13.118Z,27.30
2018-05-29T14:15:40.686Z,26.90
2018-05-29T14:18:09.509Z,26.70
2018-05-29T14:20:36.968Z,26.60
2018-05-29T14:23:04.529Z,26.50
2018-05-29T14:25:31.994Z,26.40
2018-05-29T14:28:00.158Z,26.30
2018-05-29T14:30:27.732Z,26.20
2018-05-29T14:32:55.181Z,26.10
2018-05-29T14:35:22.664Z,26.10
2018-05-29T14:37:50.288Z,26.10
2018-05-29T14:40:17.845Z,26.00
2018-05-29T14:42:45.405Z,25.90
2018-05-29T14:45:13.015Z,25.90
2018-05-29T14:47:40.523Z,25.90
2018-05-29T14:50:08.677Z,25.90
2018-05-29T14:52:36.447Z,25.90
2018-05-29T14:55:04.165Z,25.90
2018-05-29T14:57:31.656Z,25.70
2018-05-29T14:59:59.163Z,25.70
2018-05-29T15:02:27.824Z,25.60
2018-05-29T15:04:55.664Z,25.60
2018-05-29T15:07:23.460Z,25.60
2018-05-29T15:09:51.051Z,25.40
2018-05-29T15:12:18.510Z,25.30
2018-05-29T15:14:46.004Z,25.20
2018-05-29T15:17:13.544Z,25.10
2018-05-29T15:19:41.122Z,25.10
2018-05-29T15:22:08.601Z,25.00
2018-05-29T15:24:36.162Z,25.00
2018-05-29T15:27:03.607Z,25.00
2018-05-29T15:29:31.216Z,25.00
2018-05-29T15:31:58.682Z,25.00
2018-05-29T15:34:26.120Z,25.10
2018-05-29T15:36:53.763Z,25.00
2018-05-29T15:39:22.292Z,25.10
2018-05-29T15:41:49.746Z,25.10
2018-05-29T15:44:17.643Z,25.00
2018-05-29T15:46:46.084Z,24.80
2018-05-29T15:49:13.662Z,24.80
2018-05-29T15:51:41.316Z,24.80
2018-05-29T15:54:08.806Z,24.70
2018-05-29T15:56:37.746Z,24.70
2018-05-29T15:59:05.728Z,24.70
2018-05-29T16:01:33.398Z,24.30
2018-05-29T16:04:00.857Z,23.90
2018-05-29T16:06:28.402Z,23.70
2018-05-29T16:08:55.985Z,23.50
2018-05-29T16:11:23.642Z,23.40
2018-05-29T16:13:51.303Z,23.30
2018-05-29T16:16:18.757Z,23.40
2018-05-29T16:18:46.231Z,23.40
2018-05-29T16:21:13.788Z,23.40
2018-05-29T16:23:41.348Z,23.30
2018-05-29T16:26:09.575Z,23.50
2018-05-29T16:28:37.263Z,23.40
2018-05-29T16:31:04.723Z,23.50
2018-05-29T16:33:32.383Z,23.50
2018-05-29T16:35:59.841Z,23.50
2018-05-29T16:38:27.538Z,23.60
2018-05-29T16:40:55.168Z,23.60
2018-05-29T16:43:24.201Z,23.50
2018-05-29T16:45:51.692Z,23.50
2018-05-29T16:48:19.182Z,23.50
2018-05-29T16:50:46.692Z,23.50
2018-05-29T16:53:14.159Z,22.90
2018-05-29T16:55:41.723Z,20.30
2018-05-29T16:58:09.218Z,17.40
2018-05-29T17:00:36.844Z,16.20
2018-05-29T17:03:04.300Z,15.90
2018-05-29T17:05:31.752Z,16.10
2018-05-29T17:07:59.298Z,16.50
2018-05-29T17:10:27.105Z,16.80
2018-05-29T17:12:54.555Z,17.00
2018-05-29T17:15:22.116Z,17.30
2018-05-29T17:17:49.649Z,17.50
2018-05-29T17:20:17.124Z,17.60
2018-05-29T17:22:44.779Z,17.80
2018-05-29T17:25:12.240Z,17.80
2018-05-29T17:27:39.756Z,17.90
2018-05-29T17:30:07.993Z,18.10
2018-05-29T17:32:35.519Z,18.40
2018-05-29T17:35:03.088Z,18.50
2018-05-29T17:37:30.746Z,18.40
2018-05-29T17:39:58.273Z,18.40
2018-05-29T17:42:25.794Z,18.40
2018-05-29T17:44:55.059Z,18.50
2018-05-29T17:47:22.816Z,18.50
2018-05-29T17:49:51.116Z,18.60
2018-05-29T17:52:18.588Z,18.70
2018-05-29T17:54:46.073Z,18.70
2018-05-29T17:57:13.709Z,18.70
2018-05-29T17:59:41.193Z,18.70
2018-05-29T18:02:08.808Z,18.70
2018-05-29T18:04:36.301Z,18.60
2018-05-29T18:07:03.892Z,18.60
2018-05-29T18:09:31.543Z,18.50
2018-05-29T18:11:59.021Z,18.50
2018-05-29T18:14:27.981Z,18.60
2018-05-29T18:16:55.764Z,18.60
2018-05-29T18:19:23.439Z,18.60
2018-05-29T18:21:50.933Z,18.60
2018-05-29T18:24:18.412Z,18.70
2018-05-29T18:26:46.108Z,18.80
2018-05-29T18:29:14.031Z,18.90
2018-05-29T18:31:41.818Z,18.80
2018-05-29T18:34:09.265Z,18.90
2018-05-29T18:36:36.894Z,19.00
2018-05-29T18:39:07.306Z,19.00
2018-05-29T18:41:35.853Z,19.20
2018-05-29T18:44:03.513Z,19.20
2018-05-29T18:46:31.006Z,19.20
2018-05-29T18:48:58.519Z,19.30
2018-05-29T18:51:26.620Z,19.30
2018-05-29T18:53:54.193Z,19.30
2018-05-29T18:56:21.852Z,19.40
2018-05-29T18:58:49.499Z,19.40
2018-05-29T19:01:17.503Z,19.40
2018-05-29T19:03:46.116Z,19.40
2018-05-29T19:06:15.431Z,19.50
2018-05-29T19:08:43.135Z,19.50
2018-05-29T19:11:11.515Z,19.60
2018-05-29T19:13:40.203Z,19.50
2018-05-29T19:16:09.124Z,19.60
2018-05-29T19:18:37.040Z,19.50
2018-05-29T19:21:06.567Z,19.60
2018-05-29T19:23:34.801Z,19.60
2018-05-29T19:26:03.365Z,19.60
2018-05-29T19:28:30.886Z,19.50
2018-05-29T19:30:58.360Z,19.50
2018-05-29T19:33:26.784Z,19.50
2018-05-29T19:35:54.242Z,19.40
2018-05-29T19:38:22.712Z,19.40
2018-05-29T19:40:50.578Z,19.40
2018-05-29T19:43:18.072Z,19.50
2018-05-29T19:45:46.562Z,19.40
2018-05-29T19:48:15.067Z,19.40
2018-05-29T19:50:43.351Z,19.40
2018-05-29T19:53:11.208Z,19.40
2018-05-29T19:55:39.527Z,19.40
2018-05-29T19:58:08.947Z,19.30
2018-05-29T20:00:36.408Z,19.20
2018-05-29T20:03:08.419Z,19.20
2018-05-29T20:05:36.047Z,19.10
2018-05-29T20:08:05.355Z,19.10
2018-05-29T20:10:32.963Z,19.00
2018-05-29T20:13:00.434Z,18.90
2018-05-29T20:15:27.988Z,18.90
2018-05-29T20:17:55.534Z,18.90
2018-05-29T20:20:22.984Z,18.90
2018-05-29T20:22:50.460Z,18.90
2018-05-29T20:25:17.976Z,18.80
2018-05-29T20:27:45.438Z,18.90
2018-05-29T20:30:12.959Z,18.80
2018-05-29T20:32:40.396Z,18.80
2018-05-29T20:35:08.618Z,18.70
2018-05-29T20:37:36.082Z,18.70
2018-05-29T20:40:03.667Z,18.80
2018-05-29T20:42:31.297Z,18.80
2018-05-29T20:44:58.978Z,18.80
2018-05-29T20:47:26.527Z,18.80
2018-05-29T20:49:54.084Z,18.80
2018-05-29T20:52:21.760Z,18.80
2018-05-29T20:54:50.712Z,18.70
2018-05-29T20:57:18.569Z,18.70
2018-05-29T20:59:46.165Z,18.60
2018-05-29T21:02:14.155Z,18.60
2018-05-29T21:04:42.389Z,18.60
2018-05-29T21:07:09.967Z,18.50
2018-05-29T21:09:37.504Z,18.60
2018-05-29T21:12:05.087Z,18.60
2018-05-29T21:14:32.747Z,18.60
2018-05-29T21:17:00.267Z,18.70
2018-05-29T21:19:27.787Z,18.80
2018-05-29T21:21:56.011Z,18.80
2018-05-29T21:24:23.466Z,18.80
2018-05-29T21:26:50.934Z,18.80
2018-05-29T21:29:18.706Z,18.80
2018-05-29T21:31:46.374Z,18.80
2018-05-29T21:34:14.038Z,18.80
2018-05-29T21:36:41.571Z,18.80
2018-05-29T21:39:09.164Z,18.70
2018-05-29T21:41:36.620Z,18.70
2018-05-29T21:44:04.061Z,18.80
2018-05-29T21:46:33.035Z,18.70
2018-05-29T21:49:00.604Z,18.70
2018-05-29T21:51:28.134Z,18.70
2018-05-29T21:53:55.731Z,18.80
2018-05-29T21:56:23.170Z,18.80
2018-05-29T21:58:50.714Z,18.80
2018-05-29T22:01:18.286Z,18.80
2018-05-29T22:03:45.777Z,18.80
2018-05-29T22:06:13.225Z,18.80
2018-05-29T22:08:40.677Z,18.90
2018-05-29T22:11:08.130Z,18.90
2018-05-29T22:13:35.786Z,18.90
2018-05-29T22:16:04.326Z,19.00
2018-05-29T22:18:31.917Z,19.00
2018-05-29T22:20:59.421Z,18.90
2018-05-29T22:23:26.901Z,18.90
2018-05-29T22:25:54.357Z,18.90
2018-05-29T22:28:21.938Z,19.00
2018-05-29T22:30:49.627Z,19.00
2018-05-29T22:33:17.074Z,19.00
2018-05-29T22:35:44.622Z,19.00
2018-05-29T22:38:14.145Z,19.00
2018-05-29T22:40:42.373Z,19.00
2018-05-29T22:43:09.822Z,19.00
2018-05-29T22:45:37.416Z,19.00
2018-05-29T22:48:04.853Z,19.00
2018-05-29T22:50:32.468Z,19.00
2018-05-29T22:53:00.819Z,18.90
2018-05-29T22:55:28.264Z,18.90
2018-05-29T22:57:55.939Z,18.80
2018-05-29T23:00:24.889Z,18.60
2018-05-29T23:02:52.464Z,18.60
2018-05-29T23:05:19.949Z,18.60
2018-05-29T23:07:47.592Z,18.60
2018-05-29T23:10:15.250Z,18.60
2018-05-29T23:12:42.730Z,18.60
2018-05-29T23:15:10.192Z,18.60
2018-05-29T23:17:37.650Z,18.60
2018-05-29T23:20:05.299Z,18.70
2018-05-29T23:22:32.747Z,18.70
2018-05-29T23:25:00.436Z,18.70
2018-05-29T23:27:27.944Z,18.70
2018-05-29T23:29:55.458Z,18.60
2018-05-29T23:32:22.904Z,18.50
2018-05-29T23:34:51.251Z,18.50
2018-05-29T23:37:18.776Z,18.40
2018-05-29T23:39:46.557Z,18.50
2018-05-29T23:42:14.025Z,18.40
2018-05-29T23:44:41.557Z,18.40
2018-05-29T23:47:09.011Z,18.40
2018-05-29T23:49:36.547Z,18.40
2018-05-29T23:52:04.057Z,18.40
2018-05-29T23:54:31.579Z,18.40
2018-05-29T23:56:59.050Z,18.30
2018-05-29T23:59:26.630Z,18.30
